createdAt,value
2022-09-23T00:01:10.215Z,11.15
2022-09-23T00:03:39.521Z,11.28
2022-09-23T00:06:10.845Z,11.26
2022-09-23T00:08:38.742Z,11.17
2022-09-23T00:11:11.560Z,11.26
2022-09-23T00:13:42.108Z,11.27
2022-09-23T00:16:14.707Z,11.24
2022-09-23T00:18:42.231Z,11.30
2022-09-23T00:21:13.874Z,11.26
2022-09-23T00:23:42.614Z,11.31
2022-09-23T00:26:12.728Z,11.22
2022-09-23T00:28:40.462Z,11.15
2022-09-23T00:31:19.813Z,11.26
2022-09-23T00:33:46.907Z,10.99
2022-09-23T00:36:15.847Z,11.02
2022-09-23T00:38:44.127Z,11.05
2022-09-23T00:41:11.979Z,11.20
2022-09-23T00:43:39.017Z,11.00
2022-09-23T00:46:08.897Z,10.93
2022-09-23T00:48:37.308Z,11.02
2022-09-23T00:51:06.669Z,10.83
2022-09-23T00:53:34.689Z,10.94
2022-09-23T00:56:04.583Z,11.19
2022-09-23T00:58:33.008Z,11.09
2022-09-23T01:01:01.119Z,11.20
2022-09-23T01:03:28.254Z,11.09
2022-09-23T01:05:56.948Z,10.92
2022-09-23T01:08:25.003Z,10.98
2022-09-23T01:11:06.662Z,10.86
2022-09-23T01:14:02.220Z,10.68
2022-09-23T01:16:35.216Z,10.27
2022-09-23T01:19:30.149Z,10.14
2022-09-23T01:22:18.627Z,9.96
2022-09-23T01:24:47.247Z,10.09
2022-09-23T01:27:23.427Z,10.16
2022-09-23T01:30:11.894Z,10.26
2022-09-23T01:32:47.321Z,9.92
2022-09-23T01:35:34.409Z,9.74
2022-09-23T01:38:39.196Z,9.80
2022-09-23T01:41:15.549Z,10.00
2022-09-23T01:43:54.974Z,10.04
2022-09-23T01:46:29.744Z,9.99
2022-09-23T01:49:09.751Z,10.00
2022-09-23T01:51:44.226Z,10.08
2022-09-23T01:54:41.125Z,9.77
2022-09-23T01:57:27.063Z,9.90
2022-09-23T02:00:01.473Z,10.03
2022-09-23T02:02:50.085Z,9.88
2022-09-23T02:05:40.901Z,9.98
2022-09-23T02:08:34.791Z,9.91
2022-09-23T02:11:09.278Z,9.86
2022-09-23T02:13:53.662Z,9.65
2022-09-23T02:16:28.694Z,9.41
2022-09-23T02:19:01.879Z,9.45
2022-09-23T02:21:34.370Z,9.66
2022-09-23T02:24:15.206Z,9.67
2022-09-23T02:26:52.820Z,9.50
2022-09-23T02:29:21.843Z,9.80
2022-09-23T02:32:00.341Z,9.93
2022-09-23T02:34:46.473Z,9.94
2022-09-23T02:37:28.883Z,9.87
2022-09-23T02:39:59.668Z,9.82
2022-09-23T02:42:48.476Z,9.77
2022-09-23T02:45:15.704Z,9.72
2022-09-23T02:47:46.886Z,9.80
2022-09-23T02:50:14.024Z,9.51
2022-09-23T02:52:41.132Z,9.38
2022-09-23T02:55:12.095Z,9.38
2022-09-23T02:57:38.936Z,9.40
2022-09-23T03:00:06.443Z,9.12
2022-09-23T03:02:44.948Z,9.37
2022-09-23T03:05:30.420Z,9.59
2022-09-23T03:08:22.085Z,9.29
2022-09-23T03:11:08.791Z,9.04
2022-09-23T03:13:51.407Z,9.19
2022-09-23T03:16:35.702Z,9.47
2022-09-23T03:19:23.191Z,9.21
2022-09-23T03:22:11.824Z,9.10
2022-09-23T03:24:41.544Z,8.76
2022-09-23T03:27:14.006Z,8.91
2022-09-23T03:29:47.542Z,8.90
2022-09-23T03:32:18.302Z,8.85
2022-09-23T03:34:49.195Z,8.81
2022-09-23T03:37:26.418Z,8.66
2022-09-23T03:40:24.215Z,8.71
2022-09-23T03:42:51.823Z,8.76
2022-09-23T03:45:22.552Z,8.78
2022-09-23T03:47:49.332Z,8.68
2022-09-23T03:50:18.772Z,8.84
2022-09-23T03:52:46.514Z,8.84
2022-09-23T03:55:13.246Z,8.92
2022-09-23T03:57:39.959Z,8.88
2022-09-23T04:00:07.809Z,8.98
2022-09-23T04:02:34.716Z,8.85
2022-09-23T04:05:01.530Z,8.88
2022-09-23T04:07:28.531Z,8.87
2022-09-23T04:09:55.923Z,8.41
2022-09-23T04:12:22.918Z,8.59
2022-09-23T04:14:49.645Z,8.52
2022-09-23T04:17:16.851Z,8.25
2022-09-23T04:19:45.182Z,8.17
2022-09-23T04:22:12.073Z,8.32
2022-09-23T04:24:38.808Z,8.39
2022-09-23T04:27:06.239Z,8.49
2022-09-23T04:29:33.045Z,8.51
2022-09-23T04:31:59.876Z,8.30
2022-09-23T04:34:26.728Z,8.45
2022-09-23T04:36:53.471Z,8.43
2022-09-23T04:39:20.270Z,8.42
2022-09-23T04:41:47.410Z,8.26
2022-09-23T04:44:15.215Z,8.43
2022-09-23T04:46:43.898Z,8.59
2022-09-23T04:49:10.915Z,8.59
2022-09-23T04:51:37.805Z,8.57
2022-09-23T04:54:04.702Z,8.48
2022-09-23T04:56:34.287Z,8.66
2022-09-23T04:59:02.007Z,8.78
2022-09-23T05:01:34.634Z,8.61
2022-09-23T05:04:05.445Z,8.72
2022-09-23T05:06:37.302Z,9.08
2022-09-23T05:09:08.548Z,9.98
2022-09-23T05:11:35.827Z,11.13
2022-09-23T05:14:02.674Z,12.01
2022-09-23T05:16:29.843Z,12.94
2022-09-23T05:18:57.655Z,13.59
2022-09-23T05:21:28.504Z,13.95
2022-09-23T05:23:59.127Z,14.36
2022-09-23T05:26:28.499Z,15.06
2022-09-23T05:28:55.955Z,15.66
2022-09-23T05:31:32.092Z,16.05
2022-09-23T05:34:04.052Z,16.90
2022-09-23T05:36:37.901Z,17.56
2022-09-23T05:39:06.324Z,17.71
2022-09-23T05:41:34.172Z,17.85
2022-09-23T05:44:02.172Z,18.27
2022-09-23T05:46:30.552Z,18.49
2022-09-23T05:49:03.994Z,19.90
2022-09-23T05:51:32.567Z,20.40
2022-09-23T05:54:03.499Z,20.31
2022-09-23T05:56:33.981Z,20.57
2022-09-23T05:59:03.689Z,20.60
2022-09-23T06:01:34.376Z,20.98
2022-09-23T06:04:04.282Z,21.17
2022-09-23T06:06:33.992Z,21.13
2022-09-23T06:09:00.831Z,21.25
2022-09-23T06:11:31.105Z,21.17
2022-09-23T06:14:02.331Z,21.25
2022-09-23T06:16:32.193Z,21.36
2022-09-23T06:19:05.055Z,21.66
2022-09-23T06:21:33.897Z,21.58
2022-09-23T06:24:00.845Z,21.91
2022-09-23T06:26:29.208Z,21.89
2022-09-23T06:28:55.923Z,21.98
2022-09-23T06:31:22.791Z,21.68
2022-09-23T06:33:53.513Z,21.35
2022-09-23T06:36:40.233Z,21.46
2022-09-23T06:39:08.711Z,21.37
2022-09-23T06:41:35.881Z,21.66
2022-09-23T06:44:03.573Z,21.49
2022-09-23T06:46:31.851Z,21.60
2022-09-23T06:48:59.522Z,21.77
2022-09-23T06:51:26.706Z,21.30
2022-09-23T06:53:53.463Z,21.31
2022-09-23T06:56:21.536Z,21.49
2022-09-23T06:58:48.576Z,21.10
2022-09-23T07:01:19.241Z,21.22
2022-09-23T07:03:47.800Z,20.92
2022-09-23T07:06:15.158Z,20.83
2022-09-23T07:08:47.334Z,21.32
2022-09-23T07:11:15.530Z,22.11
2022-09-23T07:13:42.734Z,22.10
2022-09-23T07:16:11.144Z,22.34
2022-09-23T07:18:38.488Z,22.21
2022-09-23T07:21:15.750Z,22.50
2022-09-23T07:23:44.421Z,22.85
2022-09-23T07:26:14.835Z,22.57
2022-09-23T07:28:41.898Z,23.05
2022-09-23T07:31:11.856Z,22.80
2022-09-23T07:33:40.650Z,22.86
2022-09-23T07:36:10.268Z,23.12
2022-09-23T07:38:40.400Z,23.44
2022-09-23T07:41:12.130Z,22.82
2022-09-23T07:43:40.876Z,23.50
2022-09-23T07:46:11.838Z,23.56
2022-09-23T07:48:39.271Z,23.32
2022-09-23T07:51:36.430Z,23.16
2022-09-23T07:54:08.775Z,23.08
2022-09-23T07:56:36.914Z,23.42
2022-09-23T07:59:04.752Z,22.73
2022-09-23T08:01:38.547Z,22.60
2022-09-23T08:04:17.830Z,22.82
2022-09-23T08:06:50.260Z,22.47
2022-09-23T08:09:19.224Z,20.16
2022-09-23T08:11:46.597Z,19.32
2022-09-23T08:14:15.599Z,20.34
2022-09-23T08:16:44.150Z,21.70
2022-09-23T08:19:12.432Z,21.46
2022-09-23T08:21:40.553Z,20.69
2022-09-23T08:24:13.250Z,22.00
2022-09-23T08:26:40.137Z,20.06
2022-09-23T08:29:09.989Z,19.35
2022-09-23T08:31:36.726Z,20.50
2022-09-23T08:34:03.658Z,21.26
2022-09-23T08:36:31.443Z,19.88
2022-09-23T08:38:58.481Z,21.59
2022-09-23T08:41:45.792Z,21.80
2022-09-23T08:44:31.541Z,22.07
2022-09-23T08:47:23.403Z,22.84
2022-09-23T08:49:59.308Z,22.42
2022-09-23T08:52:40.047Z,22.82
2022-09-23T08:55:14.403Z,22.53
2022-09-23T08:58:02.206Z,22.84
2022-09-23T09:00:43.938Z,23.30
2022-09-23T09:03:26.482Z,23.57
2022-09-23T09:05:55.086Z,23.45
2022-09-23T09:08:31.528Z,24.02
2022-09-23T09:10:59.263Z,23.12
2022-09-23T09:13:28.976Z,23.63
2022-09-23T09:16:42.151Z,23.05
2022-09-23T09:19:20.573Z,23.45
2022-09-23T09:21:55.721Z,21.79
2022-09-23T09:24:33.845Z,21.86
2022-09-23T09:27:13.048Z,23.33
2022-09-23T09:29:44.775Z,22.75
2022-09-23T09:32:21.861Z,23.84
2022-09-23T09:34:59.865Z,23.06
2022-09-23T09:37:40.250Z,23.38
2022-09-23T09:40:12.273Z,22.89
2022-09-23T09:42:41.302Z,22.34
2022-09-23T09:45:30.787Z,23.06
2022-09-23T09:48:12.553Z,22.98
2022-09-23T09:50:52.329Z,22.76
2022-09-23T09:53:24.130Z,22.76
2022-09-23T09:56:09.079Z,23.67
2022-09-23T09:58:54.039Z,24.56
2022-09-23T10:01:34.820Z,24.40
2022-09-23T10:04:05.550Z,24.57
2022-09-23T10:06:36.339Z,24.42
2022-09-23T10:09:35.268Z,25.18
2022-09-23T10:12:16.342Z,24.51
2022-09-23T10:14:44.055Z,24.91
2022-09-23T10:17:40.394Z,25.11
2022-09-23T10:20:09.319Z,25.03
2022-09-23T10:22:42.921Z,24.83
2022-09-23T10:25:20.728Z,23.49
2022-09-23T10:27:48.010Z,23.32
2022-09-23T10:30:30.001Z,22.23
2022-09-23T10:32:57.643Z,22.50
2022-09-23T10:35:26.241Z,23.27
2022-09-23T10:37:58.067Z,23.70
2022-09-23T10:41:02.853Z,25.01
2022-09-23T10:43:54.123Z,24.76
2022-09-23T10:46:46.511Z,26.08
2022-09-23T10:49:41.447Z,25.70
2022-09-23T10:52:39.487Z,26.43
2022-09-23T10:55:48.248Z,23.44
2022-09-23T10:58:56.643Z,24.52
2022-09-23T11:01:49.105Z,24.35
2022-09-23T11:04:44.018Z,23.62
2022-09-23T11:07:49.660Z,23.51
2022-09-23T11:10:45.850Z,24.23
2022-09-23T11:13:19.140Z,24.60
2022-09-23T11:16:05.214Z,23.62
2022-09-23T11:18:59.436Z,24.93
2022-09-23T11:21:44.300Z,25.49
2022-09-23T11:24:41.208Z,25.67
2022-09-23T11:27:30.583Z,25.05
2022-09-23T11:30:13.340Z,24.97
2022-09-23T11:32:48.603Z,24.60
2022-09-23T11:35:24.713Z,24.77
2022-09-23T11:38:07.577Z,23.29
2022-09-23T11:40:43.965Z,23.37
2022-09-23T11:43:25.570Z,24.34
2022-09-23T11:46:11.220Z,24.63
2022-09-23T11:48:49.747Z,24.39
2022-09-23T11:51:27.353Z,24.88
2022-09-23T11:54:04.822Z,25.66
2022-09-23T11:56:40.238Z,25.49
2022-09-23T11:59:40.151Z,26.41
2022-09-23T12:02:30.851Z,26.90
2022-09-23T12:05:04.776Z,27.73
2022-09-23T12:07:39.971Z,27.64
2022-09-23T12:10:09.201Z,27.61
2022-09-23T12:12:51.808Z,27.81
2022-09-23T12:15:46.728Z,27.31
2022-09-23T12:18:36.016Z,28.17
2022-09-23T12:21:27.389Z,28.81
2022-09-23T12:24:19.303Z,29.26
2022-09-23T12:26:53.621Z,29.06
2022-09-23T12:29:21.096Z,28.49
2022-09-23T12:31:48.477Z,28.98
2022-09-23T12:34:38.164Z,28.91
2022-09-23T12:37:06.061Z,28.81
2022-09-23T12:39:35.826Z,29.01
2022-09-23T12:42:17.774Z,29.05
2022-09-23T12:44:47.534Z,28.56
2022-09-23T12:47:21.272Z,28.31
2022-09-23T12:49:51.088Z,28.65
2022-09-23T12:52:17.801Z,27.64
2022-09-23T12:54:51.498Z,27.89
2022-09-23T12:57:33.307Z,28.74
2022-09-23T13:00:34.524Z,28.60
2022-09-23T13:03:20.473Z,27.20
2022-09-23T13:06:32.091Z,26.99
2022-09-23T13:08:59.861Z,25.64
2022-09-23T13:11:30.374Z,24.60
2022-09-23T13:14:00.900Z,25.22
2022-09-23T13:16:38.062Z,24.80
2022-09-23T13:19:06.788Z,25.37
2022-09-23T13:21:42.545Z,25.79
2022-09-23T13:24:33.767Z,26.31
2022-09-23T13:27:00.622Z,26.46
2022-09-23T13:29:35.324Z,25.42
2022-09-23T13:32:02.446Z,25.68
2022-09-23T13:34:33.344Z,26.21
2022-09-23T13:37:22.043Z,26.56
2022-09-23T13:39:51.213Z,26.67
2022-09-23T13:42:30.101Z,26.95
2022-09-23T13:45:00.635Z,27.11
2022-09-23T13:47:30.279Z,27.73
2022-09-23T13:49:57.515Z,27.80
2022-09-23T13:52:33.216Z,28.03
2022-09-23T13:55:00.164Z,27.45
2022-09-23T13:57:29.594Z,27.86
2022-09-23T14:00:23.462Z,28.06
2022-09-23T14:02:50.275Z,28.02
2022-09-23T14:05:27.455Z,28.39
2022-09-23T14:07:56.785Z,28.11
2022-09-23T14:10:27.804Z,28.47
2022-09-23T14:12:56.221Z,28.26
2022-09-23T14:15:23.673Z,27.98
2022-09-23T14:17:53.624Z,27.95
2022-09-23T14:20:23.649Z,27.90
2022-09-23T14:23:10.979Z,27.92
2022-09-23T14:25:38.863Z,27.73
2022-09-23T14:28:05.748Z,27.75
2022-09-23T14:30:32.787Z,27.46
2022-09-23T14:33:00.167Z,27.36
2022-09-23T14:35:40.731Z,27.28
2022-09-23T14:38:26.423Z,27.29
2022-09-23T14:41:15.482Z,27.16
2022-09-23T14:43:53.634Z,26.82
2022-09-23T14:46:23.432Z,26.91
2022-09-23T14:49:10.709Z,26.65
2022-09-23T14:51:58.161Z,26.19
2022-09-23T14:54:40.024Z,26.32
2022-09-23T14:57:27.913Z,26.17
2022-09-23T14:59:56.401Z,25.80
2022-09-23T15:02:34.783Z,25.75
2022-09-23T15:05:39.095Z,25.87
2022-09-23T15:08:06.373Z,25.52
2022-09-23T15:10:37.832Z,25.01
2022-09-23T15:13:14.496Z,25.11
2022-09-23T15:15:42.819Z,25.35
2022-09-23T15:18:23.341Z,24.32
2022-09-23T15:20:56.801Z,24.37
2022-09-23T15:23:49.309Z,24.01
2022-09-23T15:26:21.510Z,23.88
2022-09-23T15:28:50.252Z,23.84
2022-09-23T15:31:19.038Z,24.00
2022-09-23T15:33:50.236Z,23.48
2022-09-23T15:36:43.036Z,23.49
2022-09-23T15:39:12.471Z,23.26
2022-09-23T15:41:39.207Z,23.13
2022-09-23T15:44:18.913Z,23.32
2022-09-23T15:46:46.976Z,23.26
2022-09-23T15:49:21.321Z,23.17
2022-09-23T15:51:52.245Z,23.04
2022-09-23T15:54:19.605Z,23.08
2022-09-23T15:56:47.964Z,23.05
2022-09-23T15:59:14.927Z,23.17
2022-09-23T16:01:44.256Z,22.88
2022-09-23T16:04:14.381Z,22.84
2022-09-23T16:06:43.472Z,23.08
2022-09-23T16:09:13.408Z,22.81
2022-09-23T16:11:44.532Z,22.99
2022-09-23T16:14:18.358Z,22.86
2022-09-23T16:16:47.990Z,22.87
2022-09-23T16:19:16.354Z,22.76
2022-09-23T16:21:43.414Z,22.33
2022-09-23T16:24:17.370Z,22.48
2022-09-23T16:26:46.707Z,22.06
2022-09-23T16:29:13.740Z,22.02
2022-09-23T16:31:40.810Z,21.87
2022-09-23T16:34:07.968Z,21.81
2022-09-23T16:36:38.653Z,21.77
2022-09-23T16:39:09.088Z,21.67
2022-09-23T16:41:36.561Z,21.32
2022-09-23T16:44:06.410Z,21.26
2022-09-23T16:46:34.536Z,21.27
2022-09-23T16:49:01.787Z,21.17
2022-09-23T16:51:31.772Z,20.80
2022-09-23T16:53:59.786Z,20.72
2022-09-23T16:56:29.358Z,20.63
2022-09-23T16:58:56.518Z,20.47
2022-09-23T17:01:45.406Z,20.49
2022-09-23T17:04:13.459Z,20.34
2022-09-23T17:06:44.882Z,20.29
2022-09-23T17:09:12.381Z,20.08
2022-09-23T17:11:39.506Z,19.81
2022-09-23T17:14:06.508Z,19.73
2022-09-23T17:16:35.424Z,19.79
2022-09-23T17:19:11.135Z,19.74
2022-09-23T17:21:38.302Z,19.85
2022-09-23T17:24:05.768Z,19.62
2022-09-23T17:26:33.179Z,19.44
2022-09-23T17:29:01.153Z,19.24
2022-09-23T17:31:28.578Z,19.02
2022-09-23T17:33:55.540Z,18.83
2022-09-23T17:36:22.323Z,18.67
2022-09-23T17:38:49.907Z,18.55
2022-09-23T17:41:19.687Z,18.27
2022-09-23T17:43:47.069Z,18.17
2022-09-23T17:46:18.195Z,18.14
2022-09-23T17:48:45.954Z,18.03
2022-09-23T17:51:18.952Z,18.01
2022-09-23T17:53:47.428Z,17.82
2022-09-23T17:56:25.583Z,17.57
2022-09-23T17:58:55.625Z,17.56
2022-09-23T18:01:26.512Z,17.52
2022-09-23T18:04:01.774Z,17.08
2022-09-23T18:06:33.662Z,17.41
2022-09-23T18:09:03.904Z,17.39
2022-09-23T18:11:34.196Z,17.36
2022-09-23T18:14:04.073Z,17.28
2022-09-23T18:16:35.415Z,17.04
2022-09-23T18:19:04.128Z,16.83
2022-09-23T18:21:33.487Z,16.81
2022-09-23T18:24:21.658Z,16.68
2022-09-23T18:26:50.371Z,16.54
2022-09-23T18:29:17.401Z,16.27
2022-09-23T18:31:45.275Z,16.41
2022-09-23T18:34:14.698Z,16.05
2022-09-23T18:36:41.763Z,16.24
2022-09-23T18:39:08.870Z,16.29
2022-09-23T18:41:36.373Z,16.20
2022-09-23T18:44:04.158Z,16.19
2022-09-23T18:46:31.849Z,16.04
2022-09-23T18:49:18.041Z,16.34
2022-09-23T18:51:57.550Z,16.20
2022-09-23T18:54:27.485Z,16.12
2022-09-23T18:56:55.233Z,15.94
2022-09-23T18:59:27.188Z,15.68
2022-09-23T19:01:55.782Z,15.75
2022-09-23T19:04:24.961Z,15.79
2022-09-23T19:06:53.837Z,15.70
2022-09-23T19:09:20.893Z,15.74
2022-09-23T19:11:50.961Z,15.69
2022-09-23T19:14:17.880Z,15.70
2022-09-23T19:16:44.682Z,15.71
2022-09-23T19:19:11.627Z,15.58
2022-09-23T19:21:38.550Z,15.31
2022-09-23T19:24:07.790Z,15.25
2022-09-23T19:26:40.443Z,15.21
2022-09-23T19:29:13.469Z,14.96
2022-09-23T19:31:40.938Z,14.83
2022-09-23T19:34:29.324Z,14.93
2022-09-23T19:36:57.844Z,14.46
2022-09-23T19:39:31.327Z,13.94
2022-09-23T19:41:59.082Z,14.00
2022-09-23T19:44:26.898Z,14.15
2022-09-23T19:46:56.678Z,13.93
2022-09-23T19:49:24.918Z,14.17
2022-09-23T19:51:52.177Z,14.19
2022-09-23T19:54:22.007Z,14.00
2022-09-23T19:56:50.119Z,13.87
2022-09-23T19:59:19.202Z,13.81
2022-09-23T20:01:48.069Z,13.66
2022-09-23T20:04:15.823Z,13.81
2022-09-23T20:06:43.423Z,13.90
2022-09-23T20:09:10.697Z,13.76
2022-09-23T20:11:38.235Z,13.62
2022-09-23T20:14:06.597Z,13.64
2022-09-23T20:16:35.882Z,13.35
2022-09-23T20:19:04.288Z,13.79
2022-09-23T20:21:31.382Z,13.76
2022-09-23T20:23:58.593Z,13.74
2022-09-23T20:26:43.918Z,13.58
2022-09-23T20:29:11.451Z,13.59
2022-09-23T20:31:40.588Z,13.67
2022-09-23T20:34:08.420Z,13.46
2022-09-23T20:36:36.272Z,13.28
2022-09-23T20:39:06.120Z,13.21
2022-09-23T20:41:36.711Z,13.23
2022-09-23T20:44:07.634Z,13.03
2022-09-23T20:46:34.858Z,13.09
2022-09-23T20:49:02.482Z,13.13
2022-09-23T20:51:29.507Z,12.63
2022-09-23T20:53:56.237Z,12.86
2022-09-23T20:56:23.449Z,12.72
2022-09-23T20:58:50.977Z,12.85
2022-09-23T21:01:18.476Z,12.90
2022-09-23T21:03:48.218Z,12.77
2022-09-23T21:06:18.996Z,12.62
2022-09-23T21:08:46.390Z,12.70
2022-09-23T21:11:15.826Z,12.63
2022-09-23T21:13:50.679Z,12.54
2022-09-23T21:16:20.115Z,12.63
2022-09-23T21:18:48.198Z,12.62
2022-09-23T21:21:15.445Z,12.78
2022-09-23T21:23:43.564Z,12.54
2022-09-23T21:26:17.869Z,12.59
2022-09-23T21:28:47.248Z,12.33
2022-09-23T21:31:34.534Z,12.39
2022-09-23T21:34:04.360Z,12.18
2022-09-23T21:36:33.152Z,12.46
2022-09-23T21:39:01.893Z,12.48
2022-09-23T21:41:28.711Z,12.44
2022-09-23T21:43:56.624Z,12.49
2022-09-23T21:46:24.511Z,12.43
2022-09-23T21:48:57.644Z,12.47
2022-09-23T21:51:29.834Z,12.41
2022-09-23T21:53:58.172Z,12.21
2022-09-23T21:56:30.661Z,12.18
2022-09-23T21:59:00.063Z,12.28
2022-09-23T22:01:29.039Z,12.26
2022-09-23T22:03:58.363Z,12.12
2022-09-23T22:06:28.027Z,11.62
2022-09-23T22:09:01.000Z,11.48
2022-09-23T22:11:49.071Z,11.56
2022-09-23T22:14:17.771Z,11.18
2022-09-23T22:16:44.776Z,11.57
2022-09-23T22:19:13.735Z,11.67
2022-09-23T22:21:42.086Z,11.66
2022-09-23T22:24:10.679Z,11.47
2022-09-23T22:26:39.939Z,11.60
2022-09-23T22:29:27.508Z,11.63
2022-09-23T22:32:12.878Z,11.35
2022-09-23T22:34:53.191Z,11.68
2022-09-23T22:37:25.842Z,11.56
2022-09-23T22:39:53.273Z,11.70
2022-09-23T22:42:22.855Z,11.50
2022-09-23T22:44:51.047Z,11.50
2022-09-23T22:47:19.560Z,11.40
2022-09-23T22:49:46.820Z,11.24
2022-09-23T22:52:16.211Z,11.54
2022-09-23T22:54:43.441Z,11.55
2022-09-23T22:57:10.388Z,11.44
2022-09-23T22:59:39.869Z,11.50
2022-09-23T23:02:07.836Z,10.98
2022-09-23T23:04:34.842Z,11.08
2022-09-23T23:07:03.200Z,11.34
2022-09-23T23:09:29.903Z,11.18
2022-09-23T23:11:56.645Z,11.06
2022-09-23T23:14:23.425Z,10.98
2022-09-23T23:16:50.260Z,10.35
2022-09-23T23:19:17.671Z,10.88
2022-09-23T23:21:45.648Z,10.34
2022-09-23T23:24:17.662Z,10.35
2022-09-23T23:26:45.120Z,10.64
2022-09-23T23:29:15.500Z,10.74
2022-09-23T23:31:42.691Z,10.89
2022-09-23T23:34:15.920Z,10.83
2022-09-23T23:36:43.794Z,10.87
2022-09-23T23:39:10.720Z,10.80
2022-09-23T23:41:39.365Z,10.93
2022-09-23T23:44:07.191Z,10.75
2022-09-23T23:46:34.710Z,10.81
2022-09-23T23:49:01.616Z,10.55
2022-09-23T23:51:28.888Z,10.65
2022-09-23T23:53:56.070Z,10.65
2022-09-23T23:56:24.875Z,10.20
2022-09-23T23:58:59.964Z,10.42
